Bayfield, CO (81122)

6:23 PM MDT on August 24, 2016 (GMT -0600)
Pine River Ranches | | Change Station

Elev 7178 ft 37.30 °N, 107.61 °W | Updated 8 minutes ago

Clear
Clear
61.3 °F
Feels Like 61.3 °F
N
0.0
Wind Variable Wind from SW

Today
High -- | Low -- °F
--% Chance of Precip.
Yesterday
High -- | Low -- °F
Precip. -- in
Pressure 30.04 in
Visibility 10.0 miles
Clouds Clear
Dew Point 51 °F
Humidity 69%
Rainfall 0.00 in
Snow Depth Not available.
6:34 AM 7:49 PM
Waning Gibbous, 52% visible
METAR KDRO 242353Z AUTO 32003KT 10SM CLR 18/09 A3023 RMK AO2 LTG DSNT S SLP172 60000 T01830094 10222 20167 58002
Pressure 30.04 in
Visibility 10.0 miles
Clouds Clear
Dew Point 51 °F
Humidity 69%
Rainfall 0.00 in
Snow Depth Not available.
6:34 AM 7:49 PM
Waning Gibbous, 52% visible
METAR KDRO 242353Z AUTO 32003KT 10SM CLR 18/09 A3023 RMK AO2 LTG DSNT S SLP172 60000 T01830094 10222 20167 58002

10-Day Weather Forecast

Almanac

Astronomy

Aug. 24, 2016 Rise Set
Actual Time
Civil Twilight
Nautical Twilight
Astronomical Twilight
Moon
Length of Visible Light
Length of Day
Tomorrow will be .
, % of the Moon is Illuminated

Today's Extremes

State Highs State Lows

Community

WunderPhotos

Upload Photos

1,934,745 photos uploaded!

WunderBlog® & News

Nearby

Air Quality

  Air Quality AQ Index Pollutant
Not available.

Snow Depth

Station Depth Elevation

Earthquake Activity

City Distance Mag. Time & Date
Minimum magnitude displayed is 2.5.

Coastal Water Temperatures

Place Temperature

Stations

Nearby Weather Stations

Station Location Temp. Windchill Dew Point Humidity Wind Precip. Elev Updated Type
                   

Watches & Warnings

There are currently no watches in effect.